createdAt,value
2022-12-19T00:01:37.384Z,227.07
2022-12-19T00:04:07.529Z,207.27
2022-12-19T00:06:36.125Z,230.27
2022-12-19T00:09:03.597Z,234.87
2022-12-19T00:11:30.903Z,248.67
2022-12-19T00:13:58.590Z,246.97
2022-12-19T00:16:29.998Z,237.17
2022-12-19T00:19:00.141Z,230.03
2022-12-19T00:21:28.680Z,222.80
2022-12-19T00:23:56.156Z,210.03
2022-12-19T00:26:24.672Z,209.47
2022-12-19T00:28:57.076Z,211.97
2022-12-19T00:31:24.787Z,202.93
2022-12-19T00:33:52.163Z,199.63
2022-12-19T00:36:22.732Z,205.70
2022-12-19T00:38:51.423Z,214.53
2022-12-19T00:41:19.957Z,224.83
2022-12-19T00:43:47.491Z,198.40
2022-12-19T00:46:15.708Z,204.13
2022-12-19T00:48:43.398Z,197.63
2022-12-19T00:51:21.695Z,197.63
2022-12-19T00:53:49.542Z,209.00
2022-12-19T00:56:22.703Z,220.10
2022-12-19T00:58:50.137Z,197.20
2022-12-19T01:01:29.598Z,192.73
2022-12-19T01:04:27.233Z,224.40
2022-12-19T01:06:45.959Z,195.87
2022-12-19T01:09:13.417Z,201.23
2022-12-19T01:11:59.137Z,190.27
2022-12-19T01:14:26.018Z,213.77
2022-12-19T01:16:53.358Z,237.10
2022-12-19T01:19:23.041Z,237.07
2022-12-19T01:21:49.838Z,273.70
2022-12-19T01:24:19.044Z,263.43
2022-12-19T01:26:46.518Z,241.83
2022-12-19T01:29:13.400Z,233.57
2022-12-19T01:31:40.259Z,214.23
2022-12-19T01:34:07.362Z,206.80
2022-12-19T01:36:38.041Z,206.90
2022-12-19T01:39:07.793Z,180.50
2022-12-19T01:41:35.213Z,182.67
2022-12-19T01:44:08.406Z,162.47
2022-12-19T01:46:48.127Z,184.20
2022-12-19T01:49:25.079Z,171.70
2022-12-19T01:51:54.405Z,166.97
2022-12-19T01:54:23.426Z,178.40
2022-12-19T01:56:52.899Z,169.40
2022-12-19T01:59:21.560Z,158.83
2022-12-19T02:01:51.899Z,171.53
2022-12-19T02:04:20.504Z,147.47
2022-12-19T02:06:48.406Z,182.60
2022-12-19T02:09:15.713Z,180.97
2022-12-19T02:11:42.640Z,185.37
2022-12-19T02:14:09.682Z,169.60
2022-12-19T02:16:42.331Z,214.47
2022-12-19T02:19:17.967Z,185.80
2022-12-19T02:21:55.123Z,192.10
2022-12-19T02:24:39.184Z,179.33
2022-12-19T02:27:24.633Z,186.63
2022-12-19T02:29:57.923Z,186.63
2022-12-19T02:32:32.670Z,167.17
2022-12-19T02:35:16.781Z,176.53
2022-12-19T02:38:02.932Z,201.90
2022-12-19T02:40:55.591Z,178.57
2022-12-19T02:43:23.706Z,165.70
2022-12-19T02:45:52.262Z,195.43
2022-12-19T02:48:20.167Z,230.83
2022-12-19T02:50:50.491Z,228.93
2022-12-19T02:53:18.209Z,236.13
2022-12-19T02:56:12.205Z,234.00
2022-12-19T02:58:57.658Z,202.43
2022-12-19T03:01:27.867Z,194.10
2022-12-19T03:04:00.997Z,195.03
2022-12-19T03:06:30.900Z,216.93
2022-12-19T03:09:08.829Z,231.50
2022-12-19T03:11:39.019Z,226.93
2022-12-19T03:14:16.123Z,216.70
2022-12-19T03:16:43.188Z,210.67
2022-12-19T03:19:14.364Z,199.23
2022-12-19T03:21:43.297Z,232.13
2022-12-19T03:24:12.389Z,209.73
2022-12-19T03:26:50.477Z,188.90
2022-12-19T03:29:30.111Z,199.17
2022-12-19T03:31:59.671Z,227.37
2022-12-19T03:34:32.593Z,208.73
2022-12-19T03:37:03.899Z,199.03
2022-12-19T03:39:32.540Z,208.87
2022-12-19T03:42:19.763Z,196.73
2022-12-19T03:44:49.672Z,198.50
2022-12-19T03:47:19.844Z,199.60
2022-12-19T03:49:47.834Z,220.33
2022-12-19T03:52:41.772Z,223.17
2022-12-19T03:55:47.726Z,217.57
2022-12-19T03:58:19.241Z,202.63
2022-12-19T04:00:49.803Z,217.23
2022-12-19T04:03:19.313Z,215.60
2022-12-19T04:05:48.551Z,192.83
2022-12-19T04:08:16.821Z,205.37
2022-12-19T04:10:49.908Z,212.97
2022-12-19T04:13:23.165Z,191.77
2022-12-19T04:15:58.613Z,205.63
2022-12-19T04:18:25.871Z,208.37
2022-12-19T04:21:02.345Z,197.13
2022-12-19T04:23:35.382Z,189.83
2022-12-19T04:26:05.691Z,177.97
2022-12-19T04:28:45.962Z,205.33
2022-12-19T04:31:15.263Z,184.03
2022-12-19T04:33:42.702Z,202.23
2022-12-19T04:36:11.131Z,208.57
2022-12-19T04:38:38.361Z,227.10
2022-12-19T04:41:05.698Z,217.43
2022-12-19T04:43:32.562Z,248.00
2022-12-19T04:45:59.914Z,216.80
2022-12-19T04:48:27.226Z,311.93
2022-12-19T04:50:55.052Z,243.53
2022-12-19T04:53:21.870Z,273.53
2022-12-19T04:55:48.741Z,236.20
2022-12-19T04:58:21.496Z,235.30
2022-12-19T05:00:48.978Z,207.17
2022-12-19T05:03:15.886Z,209.23
2022-12-19T05:05:42.890Z,217.23
2022-12-19T05:08:10.379Z,201.73
2022-12-19T05:10:37.648Z,226.73
2022-12-19T05:13:04.564Z,199.43
2022-12-19T05:15:32.240Z,176.10
2022-12-19T05:17:59.061Z,207.77
2022-12-19T05:20:26.008Z,192.67
2022-12-19T05:22:52.839Z,174.30
2022-12-19T05:25:19.673Z,185.00
2022-12-19T05:27:46.499Z,159.13
2022-12-19T05:30:13.669Z,152.83
2022-12-19T05:32:40.498Z,162.53
2022-12-19T05:35:08.341Z,179.07
2022-12-19T05:37:35.352Z,185.50
2022-12-19T05:40:02.378Z,190.30
2022-12-19T05:42:29.246Z,167.30
2022-12-19T05:44:56.174Z,220.67
2022-12-19T05:47:23.042Z,181.27
2022-12-19T05:49:49.940Z,188.63
2022-12-19T05:52:16.776Z,199.33
2022-12-19T05:54:43.586Z,197.30
2022-12-19T05:57:10.419Z,182.87
2022-12-19T05:59:37.304Z,196.97
2022-12-19T06:02:04.413Z,181.80
2022-12-19T06:04:31.434Z,188.93
2022-12-19T06:06:58.435Z,179.70
2022-12-19T06:09:25.352Z,191.23
2022-12-19T06:11:52.301Z,193.03
2022-12-19T06:14:19.206Z,210.60
2022-12-19T06:16:46.062Z,193.87
2022-12-19T06:19:12.883Z,185.17
2022-12-19T06:21:47.432Z,171.80
2022-12-19T06:24:14.957Z,163.30
2022-12-19T06:26:41.849Z,140.87
2022-12-19T06:29:08.764Z,137.57
2022-12-19T06:31:35.642Z,143.77
2022-12-19T06:34:02.696Z,132.50
2022-12-19T06:36:31.009Z,143.90
2022-12-19T06:38:58.585Z,178.60
2022-12-19T06:41:43.897Z,168.10
2022-12-19T06:44:12.915Z,198.43
2022-12-19T06:46:40.933Z,248.67
2022-12-19T06:49:09.077Z,304.10
2022-12-19T06:51:36.063Z,206.67
2022-12-19T06:54:02.962Z,180.73
2022-12-19T06:56:35.959Z,165.57
2022-12-19T06:59:03.146Z,155.23
2022-12-19T07:01:45.020Z,141.73
2022-12-19T07:04:18.587Z,195.70
2022-12-19T07:06:49.026Z,161.50
2022-12-19T07:09:17.373Z,156.93
2022-12-19T07:11:44.315Z,158.13
2022-12-19T07:14:11.159Z,151.43
2022-12-19T07:16:38.424Z,175.70
2022-12-19T07:19:06.930Z,164.63
2022-12-19T07:21:36.647Z,160.80
2022-12-19T07:24:04.673Z,156.27
2022-12-19T07:26:32.102Z,147.60
2022-12-19T07:29:00.007Z,133.23
2022-12-19T07:31:27.015Z,178.17
2022-12-19T07:33:53.958Z,273.43
2022-12-19T07:36:20.796Z,232.57
2022-12-19T07:38:47.660Z,174.23
2022-12-19T07:41:14.478Z,156.60
2022-12-19T07:43:41.367Z,151.23
2022-12-19T07:46:09.801Z,134.47
2022-12-19T07:48:36.823Z,133.43
2022-12-19T07:51:07.001Z,139.33
2022-12-19T07:53:33.930Z,140.03
2022-12-19T07:56:00.967Z,127.13
2022-12-19T07:58:28.015Z,132.47
2022-12-19T08:00:59.313Z,121.20
2022-12-19T08:03:26.760Z,115.17
2022-12-19T08:05:58.932Z,116.17
2022-12-19T08:08:25.982Z,112.47
2022-12-19T08:10:52.828Z,109.00
2022-12-19T08:13:19.688Z,109.70
2022-12-19T08:15:46.694Z,110.20
2022-12-19T08:18:13.611Z,105.10
2022-12-19T08:20:43.594Z,101.33
2022-12-19T08:23:10.422Z,100.13
2022-12-19T08:25:40.097Z,99.27
2022-12-19T08:28:07.065Z,107.63
2022-12-19T08:30:33.942Z,103.50
2022-12-19T08:33:00.912Z,89.93
2022-12-19T08:35:27.758Z,89.73
2022-12-19T08:37:54.629Z,98.93
2022-12-19T08:40:21.953Z,122.80
2022-12-19T08:42:50.225Z,123.83
2022-12-19T08:45:18.444Z,123.93
2022-12-19T08:47:45.923Z,147.37
2022-12-19T08:50:14.207Z,259.97
2022-12-19T08:52:41.559Z,241.67
2022-12-19T08:55:10.259Z,153.90
2022-12-19T08:57:37.137Z,135.27
2022-12-19T09:00:05.710Z,107.80
2022-12-19T09:02:33.918Z,86.83
2022-12-19T09:06:00.334Z,81.40
2022-12-19T09:07:47.764Z,70.17
2022-12-19T09:10:14.694Z,110.57
2022-12-19T09:12:42.790Z,138.17
2022-12-19T09:15:09.955Z,175.00
2022-12-19T09:17:37.097Z,201.63
2022-12-19T09:20:04.845Z,158.63
2022-12-19T09:22:31.714Z,168.53
2022-12-19T09:24:58.578Z,132.67
2022-12-19T09:27:25.450Z,113.10
2022-12-19T09:29:52.279Z,71.33
2022-12-19T09:32:19.158Z,69.73
2022-12-19T09:34:45.948Z,67.90
2022-12-19T09:37:16.711Z,68.23
2022-12-19T09:39:45.650Z,65.87
2022-12-19T09:42:20.293Z,66.77
2022-12-19T09:45:32.519Z,63.87
2022-12-19T09:48:01.375Z,69.97
2022-12-19T09:50:52.796Z,77.33
2022-12-19T09:53:58.194Z,66.77
2022-12-19T09:56:31.376Z,57.07
2022-12-19T09:59:11.989Z,60.10
2022-12-19T10:01:54.646Z,64.77
2022-12-19T10:04:24.281Z,60.33
2022-12-19T10:07:08.830Z,81.23
2022-12-19T10:12:35.398Z,83.63
2022-12-19T10:12:58.509Z,134.40
2022-12-19T10:15:44.395Z,65.60
2022-12-19T10:18:20.404Z,90.53
2022-12-19T10:21:04.219Z,110.07
2022-12-19T10:23:39.968Z,70.77
2022-12-19T10:26:19.169Z,77.70
2022-12-19T10:28:58.387Z,199.87
2022-12-19T10:31:36.043Z,460.67
2022-12-19T10:34:19.267Z,269.97
2022-12-19T10:37:25.702Z,153.17
2022-12-19T10:39:55.269Z,70.50
2022-12-19T10:42:34.117Z,57.90
2022-12-19T10:45:06.583Z,53.33
2022-12-19T10:47:33.557Z,155.60
2022-12-19T10:50:05.406Z,86.70
2022-12-19T10:52:52.519Z,154.93
2022-12-19T10:55:34.707Z,54.93
2022-12-19T10:58:17.329Z,107.47
2022-12-19T11:01:05.322Z,222.00
2022-12-19T11:03:34.252Z,115.80
2022-12-19T11:06:03.439Z,158.53
2022-12-19T11:08:35.822Z,224.20
2022-12-19T11:13:20.132Z,325.77
2022-12-19T11:18:57.055Z,70.77
2022-12-19T11:21:26.950Z,97.50
2022-12-19T11:29:27.343Z,53.83
2022-12-19T11:29:39.999Z,58.37
2022-12-19T11:29:42.535Z,146.27
2022-12-19T11:29:55.171Z,56.27
2022-12-19T11:34:02.225Z,170.90
2022-12-19T11:36:50.679Z,180.67
2022-12-19T11:39:27.385Z,107.70
2022-12-19T11:42:06.261Z,79.40
2022-12-19T11:44:44.409Z,73.47
2022-12-19T11:47:36.680Z,77.10
2022-12-19T11:50:16.313Z,55.97
2022-12-19T11:53:04.837Z,51.73
2022-12-19T11:55:48.881Z,71.87
2022-12-19T11:58:15.824Z,63.97
2022-12-19T12:01:29.537Z,56.40
2022-12-19T12:04:14.995Z,46.70
2022-12-19T12:06:50.605Z,48.37
2022-12-19T12:12:12.854Z,46.90
2022-12-19T12:19:20.513Z,44.90
2022-12-19T12:31:00.949Z,56.90
2022-12-19T12:31:04.227Z,43.83
2022-12-19T12:31:27.996Z,47.33
2022-12-19T12:31:45.126Z,45.50
2022-12-19T12:32:03.005Z,46.13
2022-12-19T12:35:46.391Z,53.73
2022-12-19T12:38:45.409Z,54.37
2022-12-19T12:41:47.600Z,69.80
2022-12-19T12:44:15.548Z,159.93
2022-12-19T12:46:55.362Z,334.90
2022-12-19T12:49:28.852Z,107.60
2022-12-19T12:51:57.099Z,114.83
2022-12-19T12:54:36.467Z,96.77
2022-12-19T12:57:04.007Z,169.30
2022-12-19T12:59:32.241Z,177.23
2022-12-19T13:02:21.108Z,131.50
2022-12-19T13:05:00.589Z,150.57
2022-12-19T13:07:33.824Z,72.00
2022-12-19T13:10:13.512Z,91.00
2022-12-19T13:13:00.650Z,85.43
2022-12-19T13:15:27.544Z,131.57
2022-12-19T13:17:54.399Z,176.60
2022-12-19T13:20:24.008Z,210.57
2022-12-19T13:23:00.313Z,88.63
2022-12-19T13:25:27.188Z,131.90
2022-12-19T13:28:03.842Z,73.23
2022-12-19T13:30:45.878Z,75.57
2022-12-19T13:33:19.623Z,88.77
2022-12-19T13:37:06.421Z,85.63
2022-12-19T13:39:51.095Z,78.73
2022-12-19T13:42:00.888Z,75.43
2022-12-19T13:44:28.686Z,85.10
2022-12-19T13:46:56.137Z,60.73
2022-12-19T13:49:35.113Z,59.93
2022-12-19T13:52:04.243Z,55.73
2022-12-19T13:54:36.396Z,57.00
2022-12-19T13:57:09.631Z,59.63
2022-12-19T13:59:40.336Z,62.13
2022-12-19T14:02:25.876Z,57.20
2022-12-19T14:04:53.038Z,56.30
2022-12-19T14:07:41.373Z,55.07
2022-12-19T14:11:54.395Z,58.37
2022-12-19T14:14:01.378Z,56.33
2022-12-19T14:16:43.572Z,73.10
2022-12-19T14:19:30.025Z,58.43
2022-12-19T14:22:20.575Z,76.37
2022-12-19T14:25:10.142Z,102.70
2022-12-19T14:28:18.619Z,233.20
2022-12-19T14:30:48.530Z,121.97
2022-12-19T14:33:46.019Z,232.50
2022-12-19T14:36:17.459Z,323.67
2022-12-19T14:39:23.220Z,201.43
2022-12-19T14:42:02.621Z,152.53
2022-12-19T14:53:17.580Z,90.43
2022-12-19T14:54:18.341Z,52.43
2022-12-19T14:54:21.439Z,96.23
2022-12-19T14:54:42.092Z,47.20
2022-12-19T14:59:49.459Z,45.37
2022-12-19T15:02:32.832Z,49.37
2022-12-19T15:05:07.432Z,46.87
2022-12-19T15:07:35.052Z,42.43
2022-12-19T15:11:09.164Z,44.87
2022-12-19T15:14:47.193Z,43.00
2022-12-19T15:16:03.311Z,43.73
2022-12-19T15:18:33.223Z,44.17
2022-12-19T15:21:08.154Z,41.27
2022-12-19T15:23:35.286Z,44.07
2022-12-19T15:26:07.095Z,39.83
2022-12-19T15:28:49.963Z,43.10
2022-12-19T15:31:35.457Z,49.53
2022-12-19T15:34:48.381Z,44.87
2022-12-19T15:37:17.510Z,40.93
2022-12-19T15:39:45.218Z,40.37
2022-12-19T15:42:22.861Z,40.13
2022-12-19T15:44:52.402Z,41.60
2022-12-19T15:47:39.512Z,36.37
2022-12-19T15:50:27.242Z,45.27
2022-12-19T15:52:57.659Z,54.17
2022-12-19T15:55:28.934Z,46.03
2022-12-19T15:58:04.306Z,90.23
2022-12-19T16:00:36.359Z,86.70
2022-12-19T16:05:50.335Z,73.07
2022-12-19T16:08:21.930Z,68.70
2022-12-19T16:11:00.958Z,58.90
2022-12-19T16:13:31.701Z,52.83
2022-12-19T16:16:02.053Z,54.50
2022-12-19T16:18:28.913Z,61.93
2022-12-19T16:21:03.019Z,76.73
2022-12-19T16:23:32.826Z,70.83
2022-12-19T16:26:00.055Z,92.27
2022-12-19T16:28:28.612Z,81.33
2022-12-19T16:31:02.479Z,78.70
2022-12-19T16:33:30.803Z,68.97
2022-12-19T16:36:06.629Z,88.43
2022-12-19T16:38:34.049Z,93.97
2022-12-19T16:41:01.827Z,78.93
2022-12-19T16:43:33.397Z,76.17
2022-12-19T16:46:01.925Z,67.00
2022-12-19T16:48:30.201Z,62.23
2022-12-19T16:50:59.067Z,59.40
2022-12-19T16:53:26.290Z,58.80
2022-12-19T16:55:56.602Z,54.33
2022-12-19T16:58:27.433Z,50.37
2022-12-19T17:00:55.517Z,50.83
2022-12-19T17:03:35.113Z,52.63
2022-12-19T17:06:02.417Z,52.53
2022-12-19T17:08:29.687Z,62.77
2022-12-19T17:10:56.670Z,61.83
2022-12-19T17:13:25.379Z,60.60
2022-12-19T17:15:56.624Z,80.53
2022-12-19T17:18:31.796Z,68.97
2022-12-19T17:20:58.745Z,70.23
2022-12-19T17:23:29.100Z,61.60
2022-12-19T17:25:56.264Z,60.13
2022-12-19T17:28:23.196Z,66.67
2022-12-19T17:30:59.703Z,71.30
2022-12-19T17:33:35.018Z,66.03
2022-12-19T17:36:02.982Z,102.13
2022-12-19T17:38:30.001Z,129.43
2022-12-19T17:40:57.196Z,118.03
2022-12-19T17:43:24.128Z,179.73
2022-12-19T17:45:52.312Z,98.63
2022-12-19T17:48:22.014Z,101.93
2022-12-19T17:50:49.273Z,92.23
2022-12-19T17:53:16.360Z,65.57
2022-12-19T17:55:43.369Z,51.83
2022-12-19T17:58:11.383Z,54.67
2022-12-19T18:00:39.327Z,48.50
2022-12-19T18:03:21.775Z,55.30
2022-12-19T18:05:50.359Z,50.13
2022-12-19T18:08:27.870Z,59.93
2022-12-19T18:10:57.204Z,46.73
2022-12-19T18:13:26.214Z,53.17
2022-12-19T18:15:56.404Z,58.43
2022-12-19T18:18:29.012Z,77.67
2022-12-19T18:20:56.440Z,112.90
2022-12-19T18:23:23.808Z,91.90
2022-12-19T18:25:54.888Z,87.90
2022-12-19T18:28:26.286Z,62.57
2022-12-19T18:31:01.830Z,57.33
2022-12-19T18:33:35.163Z,56.97
2022-12-19T18:36:02.032Z,50.77
2022-12-19T18:38:28.911Z,54.27
2022-12-19T18:40:56.006Z,53.77
2022-12-19T18:43:22.919Z,63.07
2022-12-19T18:45:52.499Z,65.03
2022-12-19T18:48:19.486Z,75.73
2022-12-19T18:50:46.464Z,65.60
2022-12-19T18:53:15.774Z,74.27
2022-12-19T18:55:42.683Z,82.83
2022-12-19T18:58:09.670Z,66.33
2022-12-19T19:00:38.625Z,62.03
2022-12-19T19:03:13.253Z,86.00
2022-12-19T19:05:40.896Z,84.77
2022-12-19T19:08:23.657Z,64.87
2022-12-19T19:10:52.975Z,62.20
2022-12-19T19:13:21.606Z,67.73
2022-12-19T19:15:51.285Z,72.07
2022-12-19T19:18:35.173Z,70.97
2022-12-19T19:21:02.884Z,79.40
2022-12-19T19:23:37.457Z,78.53
2022-12-19T19:26:05.408Z,58.90
2022-12-19T19:28:32.371Z,72.87
2022-12-19T19:31:00.745Z,57.80
2022-12-19T19:33:33.128Z,71.77
2022-12-19T19:36:11.029Z,72.93
2022-12-19T19:38:40.104Z,74.57
2022-12-19T19:41:06.956Z,74.33
2022-12-19T19:43:35.544Z,98.43
2022-12-19T19:46:02.933Z,88.13
2022-12-19T19:48:30.631Z,89.00
2022-12-19T19:50:57.886Z,83.87
2022-12-19T19:53:25.269Z,68.80
2022-12-19T19:56:00.919Z,92.23
2022-12-19T19:58:29.298Z,102.97
2022-12-19T20:00:59.353Z,69.10
2022-12-19T20:03:27.680Z,52.93
2022-12-19T20:06:02.113Z,53.03
2022-12-19T20:08:37.075Z,48.43
2022-12-19T20:11:06.090Z,56.20
2022-12-19T20:13:33.196Z,44.27
2022-12-19T20:16:12.625Z,50.20
2022-12-19T20:18:41.206Z,46.37
2022-12-19T20:21:13.805Z,46.27
2022-12-19T20:23:43.765Z,51.00
2022-12-19T20:26:12.579Z,56.07
2022-12-19T20:28:47.910Z,110.50
2022-12-19T20:31:17.872Z,91.73
2022-12-19T20:33:46.393Z,84.67
2022-12-19T20:36:14.510Z,110.37
2022-12-19T20:38:42.179Z,115.67
2022-12-19T20:41:09.240Z,157.33
2022-12-19T20:43:37.730Z,128.13
2022-12-19T20:46:13.363Z,109.53
2022-12-19T20:48:41.156Z,132.20
2022-12-19T20:51:08.999Z,97.07
2022-12-19T20:53:37.318Z,122.97
2022-12-19T20:56:05.617Z,106.47
2022-12-19T20:58:35.297Z,118.23
2022-12-19T21:01:11.843Z,111.67
2022-12-19T21:03:39.807Z,114.47
2022-12-19T21:06:08.726Z,96.33
2022-12-19T21:08:36.385Z,90.77
2022-12-19T21:11:05.406Z,58.53
2022-12-19T21:13:32.785Z,47.57
2022-12-19T21:16:07.116Z,39.30
2022-12-19T21:18:35.344Z,43.10
2022-12-19T21:21:04.333Z,44.10
2022-12-19T21:23:31.657Z,39.93
2022-12-19T21:26:00.683Z,40.53
2022-12-19T21:28:28.591Z,44.43
2022-12-19T21:31:00.564Z,41.80
2022-12-19T21:33:28.151Z,39.23
2022-12-19T21:35:55.339Z,42.27
2022-12-19T21:38:23.085Z,37.63
2022-12-19T21:40:50.100Z,42.13
2022-12-19T21:43:16.976Z,41.43
2022-12-19T21:45:43.791Z,38.33
2022-12-19T21:48:10.651Z,39.77
2022-12-19T21:50:37.511Z,43.47
2022-12-19T21:53:04.433Z,47.43
2022-12-19T21:55:31.311Z,47.07
2022-12-19T21:57:59.560Z,46.53
2022-12-19T22:00:26.530Z,46.03
2022-12-19T22:03:13.462Z,50.03
2022-12-19T22:05:40.249Z,43.20
2022-12-19T22:08:07.132Z,56.10
2022-12-19T22:10:34.007Z,42.97
2022-12-19T22:13:00.819Z,46.30
2022-12-19T22:15:27.647Z,42.73
2022-12-19T22:17:54.511Z,36.93
2022-12-19T22:20:21.357Z,38.50
2022-12-19T22:22:48.155Z,38.90
2022-12-19T22:25:15.595Z,39.80
2022-12-19T22:27:42.432Z,39.20
2022-12-19T22:30:11.302Z,39.80
2022-12-19T22:32:38.364Z,40.47
2022-12-19T22:35:06.122Z,41.70
2022-12-19T22:37:33.219Z,39.30
2022-12-19T22:40:00.558Z,36.67
2022-12-19T22:42:30.658Z,37.10
2022-12-19T22:44:57.586Z,38.00
2022-12-19T22:47:24.427Z,37.07
2022-12-19T22:49:52.528Z,32.60
2022-12-19T22:52:19.430Z,29.37
2022-12-19T22:54:46.296Z,30.93
2022-12-19T22:57:13.361Z,30.77
2022-12-19T22:59:40.644Z,29.77
2022-12-19T23:02:07.741Z,28.57
2022-12-19T23:04:36.143Z,27.70
2022-12-19T23:07:03.027Z,29.07
2022-12-19T23:09:29.844Z,24.97
2022-12-19T23:11:56.801Z,43.10
2022-12-19T23:14:23.710Z,45.67
2022-12-19T23:16:50.890Z,31.67
2022-12-19T23:19:18.654Z,31.33
2022-12-19T23:21:46.207Z,35.10
2022-12-19T23:24:13.694Z,30.63
2022-12-19T23:26:40.923Z,25.97
2022-12-19T23:29:10.918Z,23.43
2022-12-19T23:31:41.996Z,27.03
2022-12-19T23:34:09.364Z,29.13
2022-12-19T23:39:23.311Z,28.50
2022-12-19T23:41:50.156Z,26.50
2022-12-19T23:44:17.283Z,29.33
2022-12-19T23:46:44.144Z,27.20
2022-12-19T23:49:10.964Z,27.70
2022-12-19T23:51:37.860Z,25.33
2022-12-19T23:54:04.938Z,24.03
2022-12-19T23:56:33.159Z,30.00
2022-12-19T23:59:00.564Z,26.97
